createdAt,value
2022-08-22T00:03:15.396Z,78.58
2022-08-22T00:08:20.111Z,78.29
2022-08-22T00:13:33.334Z,78.20
2022-08-22T00:18:40.521Z,78.14
2022-08-22T00:23:49.483Z,78.73
2022-08-22T00:28:57.825Z,79.40
2022-08-22T00:34:06.430Z,79.78
2022-08-22T00:39:17.246Z,79.97
2022-08-22T00:44:44.453Z,80.33
2022-08-22T00:50:20.472Z,80.45
2022-08-22T00:55:46.271Z,80.77
2022-08-22T01:00:54.149Z,81.39
2022-08-22T01:06:17.868Z,81.65
2022-08-22T01:11:42.399Z,82.03
2022-08-22T01:17:09.361Z,82.22
2022-08-22T01:23:12.401Z,82.68
2022-08-22T01:29:00.038Z,83.23
2022-08-22T01:34:51.102Z,83.22
2022-08-22T01:40:22.628Z,82.65
2022-08-22T01:45:58.998Z,82.73
2022-08-22T01:51:03.552Z,82.59
2022-08-22T01:56:14.987Z,82.68
2022-08-22T02:01:33.938Z,83.19
2022-08-22T02:06:47.425Z,83.52
2022-08-22T02:11:54.389Z,83.75
2022-08-22T02:17:09.851Z,83.79
2022-08-22T02:22:29.883Z,83.90
2022-08-22T02:27:44.910Z,83.85
2022-08-22T02:33:02.253Z,83.76
2022-08-22T02:38:13.824Z,84.02
2022-08-22T02:43:22.797Z,84.32
2022-08-22T02:48:40.761Z,84.50
2022-08-22T02:53:54.615Z,84.60
2022-08-22T02:59:00.325Z,84.67
2022-08-22T03:04:44.789Z,84.48
2022-08-22T03:09:51.063Z,84.02
2022-08-22T03:15:04.588Z,83.87
2022-08-22T03:20:14.329Z,84.12
2022-08-22T03:25:28.241Z,84.16
2022-08-22T03:30:42.571Z,84.31
2022-08-22T03:35:58.611Z,84.25
2022-08-22T03:41:35.940Z,84.06
2022-08-22T03:47:04.251Z,83.99
2022-08-22T03:53:19.060Z,84.03
2022-08-22T03:58:44.224Z,84.20
2022-08-22T04:04:31.896Z,84.42
2022-08-22T04:10:07.896Z,84.44
2022-08-22T04:15:48.966Z,84.80
2022-08-22T04:21:31.834Z,84.74
2022-08-22T04:26:43.853Z,84.51
2022-08-22T04:31:51.275Z,85.07
2022-08-22T04:36:56.708Z,84.78
2022-08-22T04:42:30.815Z,84.78
2022-08-22T04:47:33.108Z,85.12
2022-08-22T04:52:56.262Z,84.83
2022-08-22T04:58:10.962Z,84.66
2022-08-22T05:03:21.218Z,84.55
2022-08-22T05:08:28.201Z,84.46
2022-08-22T05:13:33.450Z,84.56
2022-08-22T05:18:37.784Z,84.93
2022-08-22T05:23:44.126Z,84.81
2022-08-22T05:28:53.097Z,84.40
2022-08-22T05:33:57.947Z,84.61
2022-08-22T05:39:02.369Z,83.95
2022-08-22T05:44:01.505Z,83.87
2022-08-22T05:49:04.161Z,84.42
2022-08-22T05:54:17.473Z,83.90
2022-08-22T05:59:27.654Z,83.62
2022-08-22T06:04:35.788Z,83.53
2022-08-22T06:09:55.655Z,83.01
2022-08-22T06:15:11.867Z,82.70
2022-08-22T06:20:18.194Z,82.15
2022-08-22T06:25:23.898Z,81.72
2022-08-22T06:30:25.464Z,81.15
2022-08-22T06:35:55.809Z,80.59
2022-08-22T06:40:58.215Z,79.86
2022-08-22T06:45:57.528Z,79.37
2022-08-22T06:51:00.751Z,78.85
2022-08-22T06:56:05.993Z,78.46
2022-08-22T07:01:12.753Z,77.79
2022-08-22T07:06:20.481Z,77.30
2022-08-22T07:11:27.793Z,76.81
2022-08-22T07:16:36.851Z,75.93
2022-08-22T07:21:49.393Z,74.89
2022-08-22T07:27:08.895Z,73.83
2022-08-22T07:32:18.032Z,72.63
2022-08-22T07:37:31.426Z,72.52
2022-08-22T07:42:43.638Z,72.14
2022-08-22T07:48:25.084Z,72.22
2022-08-22T07:53:37.751Z,71.35
2022-08-22T07:58:42.092Z,70.41
2022-08-22T08:03:41.622Z,69.92
2022-08-22T08:08:46.697Z,69.48
2022-08-22T08:13:52.890Z,68.06
2022-08-22T08:18:57.286Z,66.34
2022-08-22T08:23:57.681Z,65.94
2022-08-22T08:29:00.038Z,65.34
2022-08-22T08:34:09.383Z,65.21
2022-08-22T08:39:20.770Z,63.80
2022-08-22T08:44:43.937Z,63.62
2022-08-22T08:50:02.501Z,62.19
2022-08-22T09:01:04.490Z,62.27
2022-08-22T09:06:44.827Z,60.99
2022-08-22T09:12:27.462Z,60.65
2022-08-22T09:17:59.036Z,59.43
2022-08-22T09:23:44.318Z,58.84
2022-08-22T09:28:54.010Z,58.07
2022-08-22T09:34:05.201Z,56.56
2022-08-22T09:39:20.162Z,53.71
2022-08-22T09:44:32.284Z,53.06
2022-08-22T09:49:49.807Z,52.88
2022-08-22T09:54:56.542Z,52.28
2022-08-22T10:00:17.412Z,51.80
2022-08-22T10:05:35.237Z,49.94
2022-08-22T10:11:03.116Z,49.09
2022-08-22T10:16:27.100Z,49.11
2022-08-22T10:21:41.061Z,47.89
2022-08-22T10:26:55.465Z,47.21
2022-08-22T10:32:10.687Z,47.66
2022-08-22T10:37:25.567Z,47.40
2022-08-22T10:42:35.790Z,47.91
2022-08-22T10:47:43.215Z,47.84
2022-08-22T10:53:12.868Z,48.41
2022-08-22T10:58:17.464Z,48.54
2022-08-22T11:03:30.815Z,49.17
2022-08-22T11:08:56.377Z,50.00
2022-08-22T11:14:26.009Z,51.06
2022-08-22T11:19:48.408Z,51.63
2022-08-22T11:25:38.807Z,52.58
2022-08-22T11:30:52.036Z,53.35
2022-08-22T11:36:04.769Z,53.56
2022-08-22T11:41:17.226Z,54.25
2022-08-22T11:46:32.694Z,54.80
2022-08-22T11:52:01.981Z,54.92
2022-08-22T11:57:12.853Z,54.64
2022-08-22T12:02:28.046Z,53.81
2022-08-22T12:07:39.059Z,53.85
2022-08-22T12:12:55.572Z,53.38
2022-08-22T12:18:32.108Z,53.45
2022-08-22T12:24:19.294Z,52.83
2022-08-22T12:29:44.703Z,52.21
2022-08-22T12:35:00.949Z,52.20
2022-08-22T12:40:45.498Z,52.00
2022-08-22T12:46:06.862Z,51.17
2022-08-22T12:51:45.100Z,51.10
2022-08-22T12:56:56.315Z,49.99
2022-08-22T13:02:01.042Z,49.30
2022-08-22T13:07:11.279Z,48.90
2022-08-22T13:12:26.225Z,49.20
2022-08-22T13:17:29.258Z,48.78
2022-08-22T13:22:35.330Z,48.69
2022-08-22T13:27:50.818Z,48.02
2022-08-22T13:33:13.032Z,46.27
2022-08-22T13:38:25.686Z,44.65
2022-08-22T13:43:30.940Z,43.20
2022-08-22T13:48:46.988Z,44.06
2022-08-22T13:54:01.005Z,44.80
2022-08-22T13:59:08.135Z,44.08
2022-08-22T14:04:35.608Z,44.97
2022-08-22T14:09:56.060Z,44.99
2022-08-22T14:15:01.949Z,44.61
2022-08-22T14:20:11.140Z,45.14
2022-08-22T14:25:24.017Z,44.98
2022-08-22T14:30:28.619Z,46.10
2022-08-22T14:35:37.964Z,46.84
2022-08-22T14:40:40.229Z,47.17
2022-08-22T14:45:45.670Z,46.96
2022-08-22T14:50:53.437Z,47.41
2022-08-22T14:56:04.569Z,48.06
2022-08-22T15:01:15.305Z,48.54
2022-08-22T15:06:31.744Z,49.03
2022-08-22T15:11:33.430Z,50.07
2022-08-22T15:16:43.813Z,50.49
2022-08-22T15:21:42.729Z,50.86
2022-08-22T15:26:55.293Z,51.20
2022-08-22T15:32:01.787Z,51.41
2022-08-22T15:37:27.631Z,52.13
2022-08-22T15:42:33.480Z,52.85
2022-08-22T15:47:41.718Z,53.16
2022-08-22T15:53:15.755Z,53.45
2022-08-22T15:58:25.450Z,53.50
2022-08-22T16:03:33.614Z,54.18
2022-08-22T16:08:52.156Z,54.53
2022-08-22T16:14:22.792Z,55.16
2022-08-22T16:19:26.446Z,55.72
2022-08-22T16:24:50.666Z,56.45
2022-08-22T16:30:01.063Z,56.90
2022-08-22T16:35:00.811Z,57.17
2022-08-22T16:40:16.794Z,57.62
2022-08-22T16:45:33.947Z,57.65
2022-08-22T16:50:41.010Z,57.62
2022-08-22T16:56:11.250Z,57.78
2022-08-22T17:01:20.842Z,57.66
2022-08-22T17:06:45.434Z,57.94
2022-08-22T17:11:59.404Z,58.05
2022-08-22T17:17:23.623Z,58.52
2022-08-22T17:22:33.178Z,58.65
2022-08-22T17:27:41.972Z,59.05
2022-08-22T17:33:10.030Z,59.37
2022-08-22T17:38:21.242Z,59.61
2022-08-22T17:43:49.228Z,59.82
2022-08-22T17:48:55.572Z,60.15
2022-08-22T17:54:02.101Z,59.96
2022-08-22T17:59:14.672Z,60.85
2022-08-22T18:04:30.506Z,61.46
2022-08-22T18:09:42.223Z,61.89
2022-08-22T18:14:55.144Z,62.22
2022-08-22T18:20:11.660Z,63.30
2022-08-22T18:25:35.873Z,63.55
2022-08-22T18:30:50.436Z,63.22
2022-08-22T18:35:56.743Z,63.60
2022-08-22T18:41:10.581Z,63.82
2022-08-22T18:46:40.933Z,64.39
2022-08-22T18:51:40.271Z,64.63
2022-08-22T18:56:54.844Z,64.91
2022-08-22T19:02:11.469Z,65.17
2022-08-22T19:07:35.743Z,65.83
2022-08-22T19:12:59.100Z,66.59
2022-08-22T19:18:27.925Z,67.68
2022-08-22T19:23:53.345Z,68.66
2022-08-22T19:28:53.154Z,69.03
2022-08-22T19:34:16.685Z,69.49
2022-08-22T19:39:54.628Z,70.35
2022-08-22T19:45:07.212Z,71.00
2022-08-22T19:50:14.614Z,71.12
2022-08-22T19:55:26.881Z,71.06
2022-08-22T20:00:50.298Z,71.37
2022-08-22T20:06:05.247Z,72.18
2022-08-22T20:11:38.264Z,72.63
2022-08-22T20:17:09.648Z,72.27
2022-08-22T20:22:12.017Z,72.22
2022-08-22T20:27:22.272Z,73.03
2022-08-22T20:32:26.231Z,73.56
2022-08-22T20:37:50.692Z,73.64
2022-08-22T20:42:54.932Z,74.29
2022-08-22T20:47:54.401Z,74.19
2022-08-22T20:53:13.641Z,74.42
2022-08-22T20:58:37.749Z,74.57
2022-08-22T21:03:45.171Z,74.65
2022-08-22T21:08:46.936Z,75.23
2022-08-22T21:13:46.147Z,75.38
2022-08-22T21:18:49.788Z,76.11
2022-08-22T21:23:51.951Z,75.97
2022-08-22T21:29:03.016Z,76.67
2022-08-22T21:34:03.762Z,77.18
2022-08-22T21:39:07.271Z,77.17
2022-08-22T21:44:29.660Z,77.93
2022-08-22T21:49:32.481Z,78.30
2022-08-22T21:54:43.456Z,78.43
2022-08-22T21:59:52.034Z,78.78
2022-08-22T22:04:58.900Z,78.80
2022-08-22T22:09:58.827Z,79.21
2022-08-22T22:14:58.258Z,79.27
2022-08-22T22:19:56.960Z,79.53
2022-08-22T22:24:56.300Z,79.92
2022-08-22T22:29:55.721Z,80.49
2022-08-22T22:34:55.507Z,80.73
2022-08-22T22:39:55.157Z,81.25
2022-08-22T22:44:54.335Z,81.63
2022-08-22T22:49:54.792Z,81.76
2022-08-22T22:54:54.154Z,81.79
2022-08-22T22:59:54.025Z,81.32
2022-08-22T23:04:57.876Z,81.60
2022-08-22T23:09:58.680Z,81.86
2022-08-22T23:15:01.389Z,81.95
2022-08-22T23:20:00.418Z,82.21
2022-08-22T23:25:00.580Z,82.04
2022-08-22T23:30:00.396Z,82.10
2022-08-22T23:34:59.770Z,82.21
2022-08-22T23:39:59.832Z,82.83
2022-08-22T23:44:59.021Z,82.94
2022-08-22T23:49:58.064Z,83.31
2022-08-22T23:54:57.853Z,83.19
2022-08-22T23:59:58.472Z,83.30
